Amboy, Washington
Current Conditions -  °F | °C
As of 10:53 AM on Friday 31 Oct 2014 (Local Time) from KSPB Reporting Station
Light Rain Light Rain  
Wind Chill: 11°   Ceiling: 1600
Heat Index: 11°   Visibility: 4mi
Dew Point:   Wind: 3mph
Humidity: 92%   Direction: 160°SSE
Pressure: 29.84"   Gusts: NA
Location:  45.91°N, 122.45°W
Report Text: KSPB 311753Z AUTO 16003KT 4SM -RA BR BKN016 BKN022 OVC050 11/09 A2984 RMK AO2 SLP103 P0000 60034 T01060094 10117 20100 50005
Loading
Personal Weather Stations






























Interactive Weather Map
Tropical Storm Tracking
New forecast layout! Learn more

10-Day Weather Forecast

Advertisements
Track Severe Weather on mobile